This is the latest recevied weather packets stored in our database for station/object OK1FCB-1. If no packets are shown the sender has not sent any weather packets the latest 10 day(s).
| Time | Temp. | Humidity | Pressure | Rain* | Wind** | Luminosity | Snow |
|---|---|---|---|---|---|---|---|
| 1777620067 | 18.89° C | 39% | 1033.2 hPa | - | - | - | - |
| 1777618264 | 17.78° C | 40% | 1033.1 hPa | - | - | - | - |
| 1777617365 | 17.78° C | 40% | 1033.3 hPa | - | - | - | - |
| 1777616466 | 16.11° C | 43% | 1033.2 hPa | - | - | - | - |
| 1777601193 | 5° C | 62% | 1033.1 hPa | - | - | - | - |
| 1777600296 | 5° C | 61% | 1033.1 hPa | - | - | - | - |
| 1777596705 | 5.56° C | 59% | 1033 hPa | - | - | - | - |
| 1777595807 | 5.56° C | 58% | 1033.1 hPa | - | - | - | - |
| 1777587725 | 3.33° C | 59% | 1033.3 hPa | - | - | - | - |
| 1777584135 | 3.89° C | 57% | 1033.1 hPa | - | - | - | - |
| 1777580544 | 5.56° C | 53% | 1033.3 hPa | - | - | - | - |
| 1777578750 | 7.22° C | 48% | 1033 hPa | - | - | - | - |
| 1777576956 | 8.33° C | 45% | 1032.8 hPa | - | - | - | - |
| 1777576064 | 8.89° C | 44% | 1032.8 hPa | - | - | - | - |
| 1777573369 | 11.11° C | 40% | 1032.6 hPa | - | - | - | - |
| 1777566211 | 24.44° C | 24% | 1032.1 hPa | - | - | - | - |
| 1777565314 | 23.89° C | 24% | 1032.2 hPa | - | - | - | - |
| 1777564422 | 24.44° C | 24% | 1032.2 hPa | - | - | - | - |
| 1777561724 | 25.56° C | 24% | 1032.2 hPa | - | - | - | - |
| 1777554546 | 25.56° C | 23% | 1033.2 hPa | - | - | - | - |
| 1777553647 | 25° C | 22% | 1033.2 hPa | - | - | - | - |
| 1777553641 | 25° C | 22% | 1033.2 hPa | - | - | - | - |
| 1777552741 | 24.44° C | 23% | 1033.4 hPa | - | - | - | - |
| 1777551842 | 24.44° C | 22% | 1033.6 hPa | - | - | - | - |
| 1777550944 | 24.44° C | 22% | 1033.7 hPa | - | - | - | - |
* Rain since midnight (hover to see other rain measurements)
** Current wind speed in m/s (hover to see current wind gust speed)